createdAt,value
2019-01-18T08:39:12.072Z,33.588
2019-01-18T08:39:28.021Z,34.865
2019-01-18T08:39:43.996Z,33.774
2019-01-18T08:39:59.865Z,33.139
2019-01-18T08:40:15.790Z,33.171
2019-01-18T08:40:31.771Z,32.95
2019-01-18T08:40:47.623Z,32.576
2019-01-18T08:41:03.482Z,32.594
2019-01-18T08:41:19.342Z,32.562
2019-01-18T08:41:35.215Z,31.686
2019-01-18T08:41:51.064Z,31.618
2019-01-18T08:42:06.972Z,31.596
2019-01-18T08:42:23.008Z,31.459
2019-01-18T08:42:39.066Z,31.331
2019-01-18T08:42:54.939Z,31.187
2019-01-18T08:43:10.796Z,30.864
2019-01-18T08:43:26.674Z,30.954
2019-01-18T08:43:42.526Z,31.059
2019-01-18T08:43:58.398Z,30.684
2019-01-18T08:44:14.288Z,30.688
2019-01-18T08:44:30.172Z,30.484
2019-01-18T08:44:46.068Z,30.713
2019-01-18T08:45:01.936Z,30.94
2019-01-18T08:45:18.316Z,30.844
2019-01-18T08:45:34.940Z,31.32
2019-01-18T08:45:50.852Z,31.458
2019-01-18T08:46:06.723Z,31.892
2019-01-18T08:46:22.579Z,31.48
2019-01-18T08:46:38.448Z,31.737
2019-01-18T08:46:54.303Z,31.943
2019-01-18T08:47:10.163Z,32.021
2019-01-18T08:47:26.061Z,31.83
2019-01-18T08:47:41.959Z,32.397
2019-01-18T08:47:57.808Z,32.149
2019-01-18T08:48:13.708Z,32.228
2019-01-18T08:48:29.587Z,32.434
2019-01-18T08:48:45.692Z,32.645
2019-01-18T08:49:01.523Z,32.62
2019-01-18T08:49:17.363Z,32.855
2019-01-18T08:49:33.229Z,32.991
2019-01-18T08:49:49.222Z,33.005
2019-01-18T08:50:05.092Z,32.457
2019-01-18T08:50:20.975Z,32.172
2019-01-18T08:50:36.869Z,31.65
2019-01-18T08:50:52.702Z,31.178
2019-01-18T08:51:08.608Z,30.722
2019-01-18T08:51:24.552Z,29.916
2019-01-18T08:51:40.701Z,29.988
2019-01-18T08:51:56.607Z,29.736
2019-01-18T08:52:12.444Z,29.709
2019-01-18T08:52:28.288Z,29.5
2019-01-18T08:52:44.145Z,29.559
2019-01-18T08:53:00.052Z,29.32
2019-01-18T08:53:15.966Z,29.436
2019-01-18T08:53:31.887Z,29.422
2019-01-18T08:53:47.846Z,29.381
2019-01-18T08:54:03.738Z,29.321
2019-01-18T08:54:19.573Z,29.379
2019-01-18T08:54:35.446Z,29.532
2019-01-18T08:54:51.371Z,29.489
2019-01-18T08:55:07.226Z,29.663
2019-01-18T08:55:23.114Z,29.678
2019-01-18T08:55:39.013Z,29.622
2019-01-18T08:55:54.912Z,29.559
2019-01-18T08:56:10.801Z,29.427
2019-01-18T08:56:26.653Z,29.256
2019-01-18T08:56:42.499Z,29.256
2019-01-18T08:56:58.335Z,29.219
2019-01-18T08:57:14.173Z,29.175
2019-01-18T08:57:30.168Z,29.073
2019-01-18T08:57:46.517Z,29.031
2019-01-18T14:12:40.005Z,35.202
2019-01-18T14:12:55.891Z,36.407
2019-01-18T14:13:11.793Z,34.512
2019-01-18T14:13:27.689Z,33.971
2019-01-18T14:13:43.560Z,33.748
2019-01-18T14:13:59.468Z,33.43
2019-01-18T14:14:15.588Z,34.676
2019-01-18T14:14:31.459Z,33.279
2019-01-18T14:14:47.332Z,33.192
2019-01-18T14:15:03.195Z,33.308
2019-01-18T14:15:19.089Z,33.037
2019-01-18T14:15:35.061Z,32.648
2019-01-18T14:15:57.464Z,32.405
2019-01-18T14:16:13.364Z,32.263
2019-01-18T14:16:29.237Z,32.195
2019-01-18T14:16:45.091Z,32.791
2019-01-18T14:17:00.985Z,32.817
2019-01-18T14:17:16.942Z,33.284
2019-01-18T14:17:32.789Z,32.817
2019-01-18T14:17:48.661Z,35.767
2019-01-18T14:18:04.513Z,32.643
